Time;durP1;ratioP1;P1;durP2;ratioP2;P2;SDS_P1;SDS_P2;PMS_P1;PMS_P2;Temp;Humidity;BMP_temperature;BMP_pressure;BME280_temperature;BME280_humidity;BME280_pressure;Samples;Min_cycle;Max_cycle;Signal;HPM_P1;HPM_P2
2022/11/24 00:00:18;;;;;;;9.83;2.63;;;;;;;;;;5073221;28;20504;-77
2022/11/24 00:02:45;;;;;;;5.20;2.83;;;;;;;;;;5070341;28;20438;-78
2022/11/24 00:05:12;;;;;;;7.73;3.60;;;;;;;;;;5070107;28;20464;-75
2022/11/24 00:07:41;;;;;;;7.93;2.93;;;;;;;;;;5071171;28;20457;-77
2022/11/24 00:10:08;;;;;;;6.27;2.57;;;;;;;;;;5070938;28;20448;-77
2022/11/24 00:12:35;;;;;;;7.10;3.13;;;;;;;;;;5070784;28;20990;-77
2022/11/24 00:15:02;;;;;;;5.53;2.73;;;;;;;;;;5070960;28;20488;-77
2022/11/24 00:17:29;;;;;;;11.20;3.77;;;;;;;;;;5065070;28;20468;-75
2022/11/24 00:19:56;;;;;;;7.13;3.33;;;;;;;;;;5070683;28;20449;-76
2022/11/24 00:22:23;;;;;;;8.87;2.80;;;;;;;;;;5070589;28;20965;-77
2022/11/24 00:24:52;;;;;;;8.23;3.70;;;;;;;;;;5065230;28;21010;-75
2022/11/24 00:27:19;;;;;;;13.83;4.63;;;;;;;;;;5062506;28;20456;-77
2022/11/24 00:29:46;;;;;;;8.70;2.87;;;;;;;;;;5065969;28;20458;-77
2022/11/24 00:32:13;;;;;;;5.10;2.90;;;;;;;;;;5070415;28;20564;-76
2022/11/24 00:34:40;;;;;;;9.13;2.73;;;;;;;;;;5061281;28;20472;-77
2022/11/24 00:37:07;;;;;;;9.13;2.80;;;;;;;;;;5070407;28;20445;-76
2022/11/24 00:39:34;;;;;;;6.90;3.07;;;;;;;;;;5063998;28;20455;-75
2022/11/24 00:42:03;;;;;;;3.90;2.50;;;;;;;;;;5064494;28;20452;-75
2022/11/24 00:44:30;;;;;;;7.87;3.33;;;;;;;;;;5064358;28;20453;-76
2022/11/24 00:46:57;;;;;;;6.33;3.00;;;;;;;;;;5064755;28;20446;-76
2022/11/24 00:49:24;;;;;;;6.20;2.77;;;;;;;;;;5071891;28;20436;-76
2022/11/24 00:51:51;;;;;;;10.70;3.53;;;;;;;;;;5072168;28;20447;-77
2022/11/24 00:54:18;;;;;;;4.23;2.63;;;;;;;;;;5069281;28;20482;-77
2022/11/24 00:56:45;;;;;;;4.50;3.10;;;;;;;;;;5072150;28;20446;-75
2022/11/24 00:59:14;;;;;;;10.37;3.87;;;;;;;;;;5070148;28;20452;-76
2022/11/24 01:01:41;;;;;;;6.63;3.83;;;;;;;;;;5072736;28;20443;-76
2022/11/24 01:04:08;;;;;;;7.20;3.17;;;;;;;;;;5064324;28;20469;-75
2022/11/24 01:06:36;;;;;;;6.47;2.57;;;;;;;;;;5055994;28;20443;-77
2022/11/24 01:09:04;;;;;;;4.87;3.10;;;;;;;;;;5073237;28;20936;-75
2022/11/24 01:12:00;;;;;;;9.07;2.60;;;;;;;;;;5081512;28;20443;-75
2022/11/24 01:14:21;;;;;;;6.40;3.00;;;;;;;;;;5089653;28;20476;-75
2022/11/24 01:16:49;;;;;;;4.90;3.33;;;;;;;;;;5091728;28;20422;-77
2022/11/24 01:19:16;;;;;;;10.87;3.43;;;;;;;;;;5092708;28;20448;-76
2022/11/24 01:21:43;;;;;;;10.60;3.50;;;;;;;;;;5092148;28;20976;-75
2022/11/24 01:24:11;;;;;;;8.67;3.40;;;;;;;;;;5086294;28;20568;-77
2022/11/24 01:26:38;;;;;;;11.07;3.20;;;;;;;;;;5079517;28;20441;-75
2022/11/24 01:29:05;;;;;;;6.03;2.87;;;;;;;;;;5077775;28;20439;-75
2022/11/24 01:31:35;;;;;;;9.60;3.20;;;;;;;;;;5077608;28;20449;-76
2022/11/24 01:34:02;;;;;;;5.43;2.70;;;;;;;;;;5076667;28;20529;-76
2022/11/24 01:36:29;;;;;;;6.47;2.70;;;;;;;;;;5079238;28;20442;-76
2022/11/24 01:38:57;;;;;;;8.63;3.40;;;;;;;;;;5076290;28;20443;-75
2022/11/24 01:41:24;;;;;;;6.50;3.20;;;;;;;;;;5076280;28;20439;-76
2022/11/24 01:43:52;;;;;;;9.03;2.90;;;;;;;;;;5074679;28;20561;-76
2022/11/24 01:46:21;;;;;;;7.67;2.70;;;;;;;;;;5074297;28;20437;-75
2022/11/24 01:48:52;;;;;;;11.00;3.03;;;;;;;;;;5081965;28;20450;-76
2022/11/24 01:51:21;;;;;;;3.67;2.97;;;;;;;;;;5096096;28;20440;-75
2022/11/24 01:53:51;;;;;;;7.93;3.03;;;;;;;;;;5086395;28;20463;-76
2022/11/24 01:56:18;;;;;;;6.50;2.90;;;;;;;;;;5081180;28;20447;-76
2022/11/24 01:58:46;;;;;;;4.13;2.53;;;;;;;;;;5077572;28;20458;-76
2022/11/24 02:01:14;;;;;;;5.53;3.57;;;;;;;;;;5074407;28;20451;-75
2022/11/24 02:03:42;;;;;;;8.80;3.23;;;;;;;;;;5073753;28;20476;-77
2022/11/24 02:06:12;;;;;;;5.60;2.90;;;;;;;;;;5074129;28;20460;-76
2022/11/24 02:08:43;;;;;;;9.60;3.00;;;;;;;;;;5074974;28;20443;-76
2022/11/24 02:11:10;;;;;;;7.80;2.93;;;;;;;;;;5074326;28;21068;-77
2022/11/24 02:13:38;;;;;;;11.13;2.83;;;;;;;;;;5072421;28;20481;-77
2022/11/24 02:16:07;;;;;;;3.67;2.20;;;;;;;;;;5072443;28;20510;-76
2022/11/24 02:18:34;;;;;;;5.93;2.80;;;;;;;;;;5073551;28;20793;-76
2022/11/24 02:21:01;;;;;;;9.10;2.40;;;;;;;;;;5073545;28;20444;-76
2022/11/24 02:23:33;;;;;;;5.47;2.60;;;;;;;;;;5074335;28;20458;-77
2022/11/24 02:26:03;;;;;;;4.77;2.87;;;;;;;;;;5076691;28;20425;-76
2022/11/24 02:28:32;;;;;;;11.00;2.80;;;;;;;;;;5074241;28;20810;-77
2022/11/24 02:30:59;;;;;;;4.03;2.43;;;;;;;;;;5073278;28;20451;-75
2022/11/24 02:33:26;;;;;;;9.73;2.87;;;;;;;;;;5070857;28;20441;-76
2022/11/24 02:35:53;;;;;;;4.57;2.40;;;;;;;;;;5071609;28;21038;-76
2022/11/24 02:38:29;;;;;;;4.77;2.73;;;;;;;;;;5071970;28;20448;-76
2022/11/24 02:40:56;;;;;;;7.93;2.63;;;;;;;;;;5071628;28;20462;-75
2022/11/24 02:43:24;;;;;;;8.13;2.57;;;;;;;;;;5070873;28;20831;-76
2022/11/24 02:45:52;;;;;;;7.27;3.53;;;;;;;;;;5071097;28;20451;-76
2022/11/24 02:48:19;;;;;;;6.07;2.63;;;;;;;;;;5071939;28;20444;-76
2022/11/24 02:50:46;;;;;;;7.60;2.43;;;;;;;;;;5071642;28;20455;-75
2022/11/24 02:53:13;;;;;;;2.83;2.00;;;;;;;;;;5070811;28;20440;-76
2022/11/24 02:55:40;;;;;;;6.43;2.17;;;;;;;;;;5071159;28;21030;-77
2022/11/24 02:58:07;;;;;;;7.27;2.73;;;;;;;;;;5071161;28;20532;-76
2022/11/24 03:00:34;;;;;;;2.77;1.70;;;;;;;;;;5071221;28;20450;-77
2022/11/24 03:03:04;;;;;;;6.80;2.30;;;;;;;;;;5070968;28;20453;-75
2022/11/24 03:05:31;;;;;;;4.33;2.00;;;;;;;;;;5071169;28;20471;-76
2022/11/24 03:07:58;;;;;;;4.23;2.10;;;;;;;;;;5071256;28;20453;-77
2022/11/24 03:10:25;;;;;;;7.20;2.37;;;;;;;;;;5071225;28;20447;-76
2022/11/24 03:12:52;;;;;;;4.50;2.07;;;;;;;;;;5070360;28;20478;-77
2022/11/24 03:15:19;;;;;;;5.30;2.10;;;;;;;;;;5071210;28;20482;-76
2022/11/24 03:17:46;;;;;;;5.30;2.33;;;;;;;;;;5071394;28;20443;-76
2022/11/24 03:20:14;;;;;;;4.63;2.40;;;;;;;;;;5071139;28;20443;-75
2022/11/24 03:22:42;;;;;;;3.53;2.20;;;;;;;;;;5070114;28;20443;-76
2022/11/24 03:25:09;;;;;;;6.67;2.47;;;;;;;;;;5070659;28;20474;-76
2022/11/24 03:27:37;;;;;;;7.73;1.90;;;;;;;;;;5070740;28;20646;-77
2022/11/24 03:30:04;;;;;;;4.87;2.23;;;;;;;;;;5070820;28;20457;-76
2022/11/24 03:32:31;;;;;;;4.70;2.27;;;;;;;;;;5070373;28;20462;-76
2022/11/24 03:34:58;;;;;;;6.40;2.27;;;;;;;;;;5070582;28;20468;-75
2022/11/24 03:37:27;;;;;;;3.37;2.30;;;;;;;;;;5071205;28;20443;-76
2022/11/24 03:39:54;;;;;;;4.97;2.53;;;;;;;;;;5072744;28;20473;-76
2022/11/24 03:42:21;;;;;;;5.97;2.00;;;;;;;;;;5072005;28;20856;-77
2022/11/24 03:44:48;;;;;;;3.03;1.80;;;;;;;;;;5071035;28;20459;-76
2022/11/24 03:47:15;;;;;;;3.20;2.30;;;;;;;;;;5070496;28;20472;-76
2022/11/24 03:49:42;;;;;;;4.00;2.30;;;;;;;;;;5070486;28;20436;-76
2022/11/24 03:52:09;;;;;;;3.53;2.20;;;;;;;;;;5070558;28;20952;-75
2022/11/24 03:54:38;;;;;;;2.97;2.00;;;;;;;;;;5070805;28;20459;-75
2022/11/24 03:57:05;;;;;;;4.80;2.13;;;;;;;;;;5072432;28;20450;-75
2022/11/24 03:59:32;;;;;;;3.93;2.27;;;;;;;;;;5071784;28;20446;-75
2022/11/24 04:01:59;;;;;;;2.77;1.70;;;;;;;;;;5072003;28;20449;-76
2022/11/24 04:04:26;;;;;;;3.20;2.30;;;;;;;;;;5071477;28;20464;-75
2022/11/24 04:06:53;;;;;;;3.53;2.37;;;;;;;;;;5070565;28;20490;-75
2022/11/24 04:09:20;;;;;;;5.37;2.43;;;;;;;;;;5070735;28;20463;-76
2022/11/24 04:14:33;;;;;;;5.40;2.73;;;;;;;;;;5053539;28;20960;-77
2022/11/24 04:17:00;;;;;;;2.13;1.50;;;;;;;;;;5050344;28;20443;-77
2022/11/24 04:19:27;;;;;;;4.50;2.63;;;;;;;;;;5050738;28;20819;-77
2022/11/24 04:21:54;;;;;;;5.60;2.57;;;;;;;;;;5050516;28;20570;-75
2022/11/24 04:24:21;;;;;;;6.90;2.70;;;;;;;;;;5049886;28;20475;-76
2022/11/24 04:26:50;;;;;;;3.43;2.47;;;;;;;;;;5050379;28;20443;-77
2022/11/24 04:29:17;;;;;;;4.27;2.10;;;;;;;;;;5050495;28;20446;-77
2022/11/24 04:31:44;;;;;;;2.40;1.97;;;;;;;;;;5050672;28;20471;-76
2022/11/24 04:34:11;;;;;;;4.53;2.20;;;;;;;;;;5049847;28;20820;-76
2022/11/24 04:36:39;;;;;;;5.23;2.53;;;;;;;;;;5050104;28;20485;-77
2022/11/24 04:39:06;;;;;;;4.47;2.30;;;;;;;;;;5049915;28;20456;-77
2022/11/24 04:41:33;;;;;;;5.80;2.40;;;;;;;;;;5050439;28;20831;-76
2022/11/24 04:44:02;;;;;;;2.97;2.03;;;;;;;;;;5059879;28;20480;-77
2022/11/24 04:46:29;;;;;;;2.83;2.30;;;;;;;;;;5069846;28;20462;-77
2022/11/24 04:48:56;;;;;;;4.83;2.60;;;;;;;;;;5070031;28;20849;-76
2022/11/24 04:51:23;;;;;;;4.40;3.00;;;;;;;;;;5071300;28;20443;-77
2022/11/24 04:53:50;;;;;;;3.57;2.60;;;;;;;;;;5073667;28;20465;-77
2022/11/24 04:56:17;;;;;;;5.37;2.40;;;;;;;;;;5074323;28;20487;-77
2022/11/24 04:58:44;;;;;;;3.60;2.00;;;;;;;;;;5074442;28;20448;-77
2022/11/24 05:01:13;;;;;;;4.83;2.67;;;;;;;;;;5074107;28;20449;-77
2022/11/24 05:03:40;;;;;;;3.50;2.90;;;;;;;;;;5073566;28;20478;-76
2022/11/24 05:06:07;;;;;;;7.57;3.33;;;;;;;;;;5074623;28;20444;-75
2022/11/24 05:08:34;;;;;;;4.57;2.33;;;;;;;;;;5073813;28;20544;-76
2022/11/24 05:11:04;;;;;;;4.67;2.27;;;;;;;;;;5075082;28;20969;-77
2022/11/24 05:13:31;;;;;;;4.70;2.20;;;;;;;;;;5074540;28;20451;-76
2022/11/24 05:16:00;;;;;;;6.07;2.50;;;;;;;;;;5075221;28;20476;-77
2022/11/24 05:18:28;;;;;;;7.00;2.77;;;;;;;;;;5075403;28;20441;-76
2022/11/24 05:20:55;;;;;;;5.10;2.43;;;;;;;;;;5076361;28;20979;-77
2022/11/24 05:23:22;;;;;;;4.03;2.27;;;;;;;;;;5073501;28;20457;-76
2022/11/24 05:25:50;;;;;;;5.67;2.90;;;;;;;;;;5076004;28;20441;-77
2022/11/24 05:28:18;;;;;;;3.37;2.40;;;;;;;;;;5074069;28;20451;-77
2022/11/24 05:30:45;;;;;;;5.83;2.70;;;;;;;;;;5074091;28;20453;-76
2022/11/24 05:33:17;;;;;;;7.30;3.30;;;;;;;;;;5073271;28;20464;-78
2022/11/24 05:35:46;;;;;;;5.50;2.40;;;;;;;;;;5074438;28;20465;-77
2022/11/24 05:38:14;;;;;;;3.97;2.53;;;;;;;;;;5074448;28;20444;-78
2022/11/24 05:40:41;;;;;;;4.60;2.77;;;;;;;;;;5074070;28;20445;-78
2022/11/24 05:43:11;;;;;;;10.40;6.90;;;;;;;;;;5073049;28;20544;-77
2022/11/24 05:45:38;;;;;;;7.57;3.47;;;;;;;;;;5072824;28;20915;-76
2022/11/24 05:48:06;;;;;;;5.20;2.37;;;;;;;;;;5073215;28;20504;-76
2022/11/24 05:50:33;;;;;;;2.73;2.50;;;;;;;;;;5070269;28;20873;-76
2022/11/24 05:53:04;;;;;;;10.47;4.03;;;;;;;;;;5072346;28;20957;-75
2022/11/24 05:55:31;;;;;;;7.00;2.77;;;;;;;;;;5072999;28;20477;-77
2022/11/24 05:58:00;;;;;;;5.20;2.23;;;;;;;;;;5072995;28;20467;-77
2022/11/24 06:00:27;;;;;;;13.10;2.90;;;;;;;;;;5072961;28;20536;-76
2022/11/24 06:02:54;;;;;;;5.43;2.80;;;;;;;;;;5071211;28;20996;-78
2022/11/24 06:05:21;;;;;;;8.13;2.83;;;;;;;;;;5072679;28;20459;-76
2022/11/24 06:07:49;;;;;;;6.40;3.67;;;;;;;;;;5072928;28;20445;-76
2022/11/24 06:10:18;;;;;;;8.47;3.00;;;;;;;;;;5073559;28;20453;-75
2022/11/24 06:12:45;;;;;;;4.13;2.27;;;;;;;;;;5073071;28;20664;-76
2022/11/24 06:15:13;;;;;;;5.90;2.67;;;;;;;;;;5073903;28;20818;-77
2022/11/24 06:17:40;;;;;;;4.93;2.70;;;;;;;;;;5073770;28;20450;-77
2022/11/24 06:20:08;;;;;;;7.10;3.13;;;;;;;;;;5073268;28;20467;-77
2022/11/24 06:22:35;;;;;;;7.33;3.40;;;;;;;;;;5073296;28;20436;-76
2022/11/24 06:25:02;;;;;;;6.73;2.90;;;;;;;;;;5074595;28;20481;-77
2022/11/24 06:27:31;;;;;;;6.20;2.87;;;;;;;;;;5074784;28;20504;-76
2022/11/24 06:29:58;;;;;;;15.23;5.90;;;;;;;;;;5073531;28;20447;-76
2022/11/24 06:32:25;;;;;;;4.30;2.93;;;;;;;;;;5073517;28;20442;-77
2022/11/24 06:34:52;;;;;;;12.47;4.17;;;;;;;;;;5073878;28;21062;-76
2022/11/24 06:37:19;;;;;;;8.13;3.43;;;;;;;;;;5073995;28;20540;-77
2022/11/24 06:39:47;;;;;;;8.57;3.40;;;;;;;;;;5072958;28;20534;-77
2022/11/24 06:42:17;;;;;;;9.03;3.37;;;;;;;;;;5072289;28;20645;-76
2022/11/24 06:44:46;;;;;;;9.93;3.67;;;;;;;;;;5071278;28;20477;-77
2022/11/24 06:47:13;;;;;;;12.53;6.27;;;;;;;;;;5072725;28;21282;-78
2022/11/24 06:49:40;;;;;;;9.60;4.57;;;;;;;;;;5073929;28;20453;-77
2022/11/24 06:52:07;;;;;;;10.23;4.03;;;;;;;;;;5072766;28;20454;-77
2022/11/24 06:54:34;;;;;;;10.33;3.37;;;;;;;;;;5072748;28;20506;-76
2022/11/24 06:57:01;;;;;;;9.50;3.37;;;;;;;;;;5074153;28;20943;-77
2022/11/24 06:59:28;;;;;;;9.40;3.13;;;;;;;;;;5072078;28;20439;-76
2022/11/24 07:01:56;;;;;;;9.73;3.37;;;;;;;;;;5071728;28;20451;-77
2022/11/24 07:04:24;;;;;;;7.07;3.37;;;;;;;;;;5072149;28;20465;-76
2022/11/24 07:06:51;;;;;;;9.50;3.30;;;;;;;;;;5071445;28;20436;-75
2022/11/24 07:09:18;;;;;;;5.13;3.00;;;;;;;;;;5072431;28;20438;-76
2022/11/24 07:11:45;;;;;;;5.97;2.93;;;;;;;;;;5070750;28;20459;-77
2022/11/24 07:14:12;;;;;;;8.60;3.10;;;;;;;;;;5070533;28;20977;-77
2022/11/24 07:16:39;;;;;;;6.73;3.40;;;;;;;;;;5071133;28;20473;-77
2022/11/24 07:19:07;;;;;;;5.20;2.70;;;;;;;;;;5071621;28;20442;-77
2022/11/24 07:21:35;;;;;;;9.63;3.50;;;;;;;;;;5071216;28;20450;-77
2022/11/24 07:24:02;;;;;;;9.17;2.90;;;;;;;;;;5071167;28;20471;-77
2022/11/24 07:26:29;;;;;;;10.43;3.53;;;;;;;;;;5071517;28;20955;-77
2022/11/24 07:28:56;;;;;;;7.33;3.50;;;;;;;;;;5072338;28;20456;-76
2022/11/24 07:31:25;;;;;;;11.07;3.83;;;;;;;;;;5073218;28;20929;-78
2022/11/24 07:33:53;;;;;;;5.90;2.87;;;;;;;;;;5070659;28;20816;-76
2022/11/24 07:36:22;;;;;;;8.73;3.90;;;;;;;;;;5073302;28;20482;-78
2022/11/24 07:38:49;;;;;;;10.90;4.10;;;;;;;;;;5073083;28;20454;-78
2022/11/24 07:41:18;;;;;;;11.37;3.80;;;;;;;;;;5075691;28;20444;-77
2022/11/24 07:43:45;;;;;;;8.23;6.27;;;;;;;;;;5071375;28;20976;-77
2022/11/24 07:46:13;;;;;;;15.07;3.80;;;;;;;;;;5071065;28;20458;-77
2022/11/24 07:48:40;;;;;;;13.53;3.67;;;;;;;;;;5072603;28;20959;-77
2022/11/24 07:51:07;;;;;;;9.00;3.10;;;;;;;;;;5071921;28;20452;-77
2022/11/24 07:53:36;;;;;;;7.13;3.10;;;;;;;;;;5072388;28;20444;-77
2022/11/24 07:56:05;;;;;;;9.30;3.43;;;;;;;;;;5072959;28;20476;-77
2022/11/24 07:58:32;;;;;;;8.13;2.93;;;;;;;;;;5073888;28;20463;-77
2022/11/24 08:01:00;;;;;;;10.07;2.80;;;;;;;;;;5072253;28;20448;-77
2022/11/24 08:03:27;;;;;;;6.83;2.60;;;;;;;;;;5070073;28;20820;-76
2022/11/24 08:05:54;;;;;;;6.17;2.60;;;;;;;;;;5070995;28;20435;-77
2022/11/24 08:08:21;;;;;;;7.63;2.53;;;;;;;;;;5070677;28;20465;-76
2022/11/24 08:10:50;;;;;;;2.57;1.60;;;;;;;;;;5070898;28;20447;-78
2022/11/24 08:13:17;;;;;;;7.03;2.30;;;;;;;;;;5063692;28;20538;-78
2022/11/24 08:15:44;;;;;;;3.87;1.70;;;;;;;;;;5050447;28;20442;-78
2022/11/24 08:18:11;;;;;;;5.77;2.60;;;;;;;;;;5050708;28;20457;-77
2022/11/24 08:20:38;;;;;;;6.00;2.30;;;;;;;;;;5051071;28;20461;-77
2022/11/24 08:23:05;;;;;;;4.63;2.10;;;;;;;;;;5050171;28;20445;-78
2022/11/24 08:25:32;;;;;;;4.00;1.93;;;;;;;;;;5050731;28;20461;-75
2022/11/24 08:28:02;;;;;;;10.57;2.60;;;;;;;;;;5062195;28;20459;-77
2022/11/24 08:30:29;;;;;;;4.83;1.90;;;;;;;;;;5065168;28;20516;-77
2022/11/24 08:32:56;;;;;;;4.77;2.03;;;;;;;;;;5073566;28;20824;-77
2022/11/24 08:35:23;;;;;;;6.20;2.40;;;;;;;;;;5067730;28;20463;-76
2022/11/24 08:37:50;;;;;;;4.20;1.93;;;;;;;;;;5074184;28;20476;-76
2022/11/24 08:40:18;;;;;;;2.53;1.40;;;;;;;;;;5074863;28;20459;-77
2022/11/24 08:42:45;;;;;;;3.60;1.70;;;;;;;;;;5072342;28;20444;-77
2022/11/24 08:45:13;;;;;;;2.37;1.63;;;;;;;;;;5074137;28;20459;-77
2022/11/24 08:47:40;;;;;;;5.00;1.60;;;;;;;;;;5073929;28;20442;-77
2022/11/24 08:50:07;;;;;;;2.40;1.43;;;;;;;;;;5075728;28;20935;-77
2022/11/24 08:52:35;;;;;;;2.60;1.70;;;;;;;;;;5075951;28;20449;-76
2022/11/24 08:55:02;;;;;;;3.17;2.87;;;;;;;;;;5074557;28;20474;-77
2022/11/24 08:57:29;;;;;;;5.73;2.17;;;;;;;;;;5075011;28;20476;-77
2022/11/24 08:59:56;;;;;;;2.40;1.40;;;;;;;;;;5077124;28;20788;-76
2022/11/24 09:02:24;;;;;;;1.80;1.20;;;;;;;;;;5074872;28;20938;-78
2022/11/24 09:04:51;;;;;;;2.00;1.90;;;;;;;;;;5074330;28;20491;-77
2022/11/24 09:07:19;;;;;;;2.50;1.40;;;;;;;;;;5076753;28;20441;-78
2022/11/24 09:09:46;;;;;;;3.23;1.60;;;;;;;;;;5090765;28;20448;-77
2022/11/24 09:12:13;;;;;;;1.80;1.13;;;;;;;;;;5099099;28;20420;-75
2022/11/24 09:14:40;;;;;;;2.67;1.27;;;;;;;;;;5097893;28;20478;-76
2022/11/24 09:17:07;;;;;;;1.30;1.20;;;;;;;;;;5097822;28;20475;-76
2022/11/24 09:19:35;;;;;;;1.80;1.30;;;;;;;;;;5098543;28;20505;-76
2022/11/24 09:22:03;;;;;;;1.33;1.20;;;;;;;;;;5094952;28;20440;-75
2022/11/24 09:24:30;;;;;;;1.10;1.10;;;;;;;;;;5091617;28;20473;-75
2022/11/24 09:26:57;;;;;;;1.60;1.50;;;;;;;;;;5089919;28;20471;-77
2022/11/24 09:29:24;;;;;;;1.40;1.30;;;;;;;;;;5078276;28;20764;-76
2022/11/24 09:31:51;;;;;;;4.77;1.40;;;;;;;;;;5076413;28;20452;-75
2022/11/24 09:34:18;;;;;;;2.50;1.40;;;;;;;;;;5075949;28;20477;-76
2022/11/24 09:36:46;;;;;;;2.00;1.53;;;;;;;;;;5077035;28;20476;-76
2022/11/24 09:39:13;;;;;;;2.13;1.40;;;;;;;;;;5075006;28;20455;-77
2022/11/24 09:41:48;;;;;;;1.20;1.10;;;;;;;;;;5078510;28;20938;-76
2022/11/24 09:44:22;;;;;;;2.63;1.07;;;;;;;;;;5074574;28;20979;-75
2022/11/24 09:46:54;;;;;;;2.43;1.23;;;;;;;;;;5075172;28;20439;-76
2022/11/24 09:49:24;;;;;;;0.90;0.90;;;;;;;;;;5076165;28;20429;-76
2022/11/24 09:51:55;;;;;;;1.20;1.10;;;;;;;;;;5073705;28;20440;-75
2022/11/24 09:54:25;;;;;;;4.03;1.60;;;;;;;;;;5072844;28;20861;-76
2022/11/24 09:56:52;;;;;;;0.80;0.80;;;;;;;;;;5073672;28;20475;-76
2022/11/24 09:59:21;;;;;;;2.30;1.13;;;;;;;;;;5072881;28;20447;-77
2022/11/24 10:01:48;;;;;;;1.10;1.00;;;;;;;;;;5073300;28;20447;-76
2022/11/24 10:04:18;;;;;;;1.60;1.10;;;;;;;;;;5073042;28;20488;-75
2022/11/24 10:06:48;;;;;;;1.97;1.50;;;;;;;;;;5073879;28;20427;-76
2022/11/24 10:09:24;;;;;;;2.80;1.00;;;;;;;;;;5072622;28;20447;-75
2022/11/24 10:11:57;;;;;;;3.20;1.17;;;;;;;;;;5072297;28;20448;-76
2022/11/24 10:14:34;;;;;;;2.30;1.03;;;;;;;;;;5072290;28;20465;-77
2022/11/24 10:17:05;;;;;;;1.30;1.23;;;;;;;;;;5075035;28;20870;-75
2022/11/24 10:19:39;;;;;;;2.90;1.60;;;;;;;;;;5073166;28;20448;-76
2022/11/24 10:22:18;;;;;;;1.20;1.10;;;;;;;;;;5073125;28;20459;-77
2022/11/24 10:24:57;;;;;;;1.20;1.20;;;;;;;;;;5072683;28;20471;-76
2022/11/24 10:27:27;;;;;;;1.57;1.47;;;;;;;;;;5073806;28;20421;-75
2022/11/24 10:29:54;;;;;;;1.20;1.10;;;;;;;;;;5074277;28;20936;-77
2022/11/24 10:32:24;;;;;;;1.20;1.17;;;;;;;;;;5074356;28;21025;-78
2022/11/24 10:34:52;;;;;;;1.67;1.47;;;;;;;;;;5072810;28;20480;-77
2022/11/24 10:37:21;;;;;;;2.20;1.20;;;;;;;;;;5056657;28;20560;-77
2022/11/24 10:39:54;;;;;;;2.13;1.43;;;;;;;;;;5054779;28;20444;-77
2022/11/24 10:42:24;;;;;;;1.17;1.07;;;;;;;;;;5054448;28;20422;-78
2022/11/24 10:44:59;;;;;;;0.87;0.87;;;;;;;;;;5059202;28;20491;-77
2022/11/24 10:47:26;;;;;;;1.33;1.00;;;;;;;;;;5078159;28;20428;-77
2022/11/24 10:49:56;;;;;;;0.90;0.90;;;;;;;;;;5077831;28;20471;-76
2022/11/24 10:52:25;;;;;;;1.83;1.00;;;;;;;;;;5078954;28;20451;-78
2022/11/24 10:54:56;;;;;;;1.20;1.10;;;;;;;;;;5080469;28;20469;-77
2022/11/24 10:57:31;;;;;;;3.80;2.37;;;;;;;;;;5076537;28;20936;-77
2022/11/24 10:59:58;;;;;;;6.87;6.20;;;;;;;;;;5075052;28;20454;-77
2022/11/24 11:02:30;;;;;;;1.20;1.10;;;;;;;;;;5074178;28;20471;-76
2022/11/24 11:04:57;;;;;;;1.50;1.40;;;;;;;;;;5077604;28;20460;-77
2022/11/24 11:07:25;;;;;;;3.40;0.90;;;;;;;;;;5074800;28;20573;-77
2022/11/24 11:10:12;;;;;;;1.00;1.00;;;;;;;;;;5071325;28;20449;-78
2022/11/24 11:12:41;;;;;;;0.70;0.70;;;;;;;;;;5071321;28;20440;-77
2022/11/24 11:15:24;;;;;;;1.37;1.30;;;;;;;;;;5071221;28;20465;-78
2022/11/24 11:17:56;;;;;;;2.60;1.67;;;;;;;;;;5071379;28;20480;-77
2022/11/24 11:20:27;;;;;;;1.30;1.20;;;;;;;;;;5071053;28;20463;-76
2022/11/24 11:22:55;;;;;;;1.63;1.27;;;;;;;;;;5050824;28;20438;-77
2022/11/24 11:25:24;;;;;;;1.30;1.20;;;;;;;;;;5050918;28;20853;-78
2022/11/24 11:28:10;;;;;;;3.87;1.40;;;;;;;;;;5050752;28;21109;-77
2022/11/24 11:30:37;;;;;;;2.00;1.20;;;;;;;;;;5051522;28;20426;-77
2022/11/24 11:33:04;;;;;;;1.53;1.33;;;;;;;;;;5050451;28;20445;-77
2022/11/24 11:35:33;;;;;;;3.80;1.20;;;;;;;;;;5051028;28;20461;-77
2022/11/24 11:38:01;;;;;;;1.33;1.23;;;;;;;;;;5050692;28;20602;-77
2022/11/24 11:40:29;;;;;;;1.47;1.37;;;;;;;;;;5050548;28;20951;-77
2022/11/24 11:43:01;;;;;;;1.33;1.27;;;;;;;;;;5050389;28;20461;-78
2022/11/24 11:45:29;;;;;;;1.20;1.10;;;;;;;;;;5050646;28;20488;-76
2022/11/24 11:47:58;;;;;;;1.27;1.10;;;;;;;;;;5050813;28;21101;-77
2022/11/24 11:50:28;;;;;;;1.93;1.43;;;;;;;;;;5050241;28;20445;-78
2022/11/24 11:53:01;;;;;;;2.17;1.27;;;;;;;;;;5050098;28;20430;-77
2022/11/24 11:55:37;;;;;;;3.27;1.47;;;;;;;;;;5051434;28;20825;-78
2022/11/24 11:58:18;;;;;;;2.43;1.30;;;;;;;;;;5050171;28;20468;-77
2022/11/24 12:00:47;;;;;;;2.10;1.30;;;;;;;;;;5050331;28;20445;-77
2022/11/24 12:03:20;;;;;;;3.20;1.90;;;;;;;;;;5049549;28;20441;-76
2022/11/24 12:05:51;;;;;;;3.07;1.83;;;;;;;;;;5050033;28;20460;-76
2022/11/24 12:08:24;;;;;;;2.93;1.40;;;;;;;;;;5050139;28;20487;-76
2022/11/24 12:10:54;;;;;;;5.23;1.53;;;;;;;;;;5050317;28;20512;-76
2022/11/24 12:13:32;;;;;;;4.10;1.60;;;;;;;;;;5056554;28;20429;-77
2022/11/24 12:16:03;;;;;;;3.60;2.10;;;;;;;;;;5070550;28;20452;-77
2022/11/24 12:18:33;;;;;;;3.03;1.70;;;;;;;;;;5071035;28;20483;-77
2022/11/24 12:21:04;;;;;;;2.53;1.73;;;;;;;;;;5070412;28;20936;-77
2022/11/24 12:23:37;;;;;;;5.33;2.13;;;;;;;;;;5070728;28;20459;-76
2022/11/24 12:26:07;;;;;;;2.87;1.30;;;;;;;;;;5070971;28;20908;-77
2022/11/24 12:28:44;;;;;;;2.20;1.37;;;;;;;;;;5072813;28;20775;-77
2022/11/24 12:31:16;;;;;;;3.33;1.67;;;;;;;;;;5072101;28;20453;-77
2022/11/24 12:33:58;;;;;;;2.77;1.30;;;;;;;;;;5072358;28;20965;-77
2022/11/24 12:36:32;;;;;;;5.60;1.60;;;;;;;;;;5073650;28;20444;-77
2022/11/24 12:39:04;;;;;;;3.10;2.03;;;;;;;;;;5072149;28;20464;-77
2022/11/24 12:41:43;;;;;;;3.73;1.50;;;;;;;;;;5076970;28;20448;-77
2022/11/24 12:44:16;;;;;;;5.50;1.90;;;;;;;;;;5074561;28;20468;-77
2022/11/24 12:46:52;;;;;;;3.47;1.73;;;;;;;;;;5074032;28;20440;-77
2022/11/24 12:49:23;;;;;;;4.20;2.00;;;;;;;;;;5072630;28;20435;-77
2022/11/24 12:51:58;;;;;;;4.40;1.73;;;;;;;;;;5070948;28;20582;-77
2022/11/24 12:54:26;;;;;;;2.90;1.60;;;;;;;;;;5071109;28;20468;-77
2022/11/24 12:56:56;;;;;;;2.63;1.70;;;;;;;;;;5070216;28;20437;-76
2022/11/24 12:59:31;;;;;;;6.37;2.03;;;;;;;;;;5071147;28;20433;-77
2022/11/24 13:02:03;;;;;;;2.70;1.60;;;;;;;;;;5073074;28;20455;-77
2022/11/24 13:04:34;;;;;;;3.60;1.93;;;;;;;;;;5069323;28;20823;-77
2022/11/24 13:07:04;;;;;;;5.73;1.13;;;;;;;;;;5069849;28;20453;-77
2022/11/24 13:09:31;;;;;;;4.83;1.60;;;;;;;;;;5069560;28;20444;-77
2022/11/24 13:12:08;;;;;;;3.77;1.73;;;;;;;;;;5070218;28;20441;-77
2022/11/24 13:14:38;;;;;;;4.40;1.80;;;;;;;;;;5055910;28;20456;-76
2022/11/24 13:17:23;;;;;;;5.93;1.60;;;;;;;;;;5052899;28;20791;-78
2022/11/24 13:19:50;;;;;;;3.23;1.60;;;;;;;;;;5055967;28;20441;-77
2022/11/24 13:22:19;;;;;;;5.07;1.50;;;;;;;;;;5061731;28;20462;-77
2022/11/24 13:24:46;;;;;;;3.47;2.00;;;;;;;;;;5057274;28;20496;-76
2022/11/24 13:27:25;;;;;;;4.57;1.60;;;;;;;;;;5060361;28;20477;-77
2022/11/24 13:29:55;;;;;;;3.73;1.50;;;;;;;;;;5064015;28;20521;-77
2022/11/24 13:32:52;;;;;;;1.90;1.53;;;;;;;;;;5067546;28;20509;-77
2022/11/24 13:35:19;;;;;;;4.60;1.87;;;;;;;;;;5067261;28;20462;-77
2022/11/24 13:37:50;;;;;;;5.77;2.10;;;;;;;;;;5066558;28;20488;-76
2022/11/24 13:40:37;;;;;;;5.20;1.77;;;;;;;;;;5062670;28;20437;-76
2022/11/24 13:43:29;;;;;;;4.77;1.80;;;;;;;;;;5065903;28;20472;-77
2022/11/24 13:45:57;;;;;;;3.60;1.87;;;;;;;;;;5058881;28;20477;-76
2022/11/24 13:48:43;;;;;;;3.80;2.13;;;;;;;;;;5069336;28;20503;-77
2022/11/24 13:51:16;;;;;;;3.13;1.77;;;;;;;;;;5065702;28;20464;-77
2022/11/24 13:53:45;;;;;;;4.83;2.10;;;;;;;;;;5064378;28;20461;-77
2022/11/24 13:56:21;;;;;;;4.90;2.10;;;;;;;;;;5063007;28;20441;-76
2022/11/24 13:58:49;;;;;;;3.80;1.43;;;;;;;;;;5066756;28;20499;-77
2022/11/24 14:01:20;;;;;;;3.17;1.87;;;;;;;;;;5059780;28;20499;-77
2022/11/24 14:03:50;;;;;;;4.50;1.70;;;;;;;;;;5064559;28;20457;-76
2022/11/24 14:06:21;;;;;;;6.63;1.93;;;;;;;;;;5067913;28;20471;-77
2022/11/24 14:08:49;;;;;;;6.23;2.77;;;;;;;;;;5063319;28;20446;-78
2022/11/24 14:11:17;;;;;;;2.27;1.97;;;;;;;;;;5065624;28;20464;-77
2022/11/24 14:13:45;;;;;;;7.70;2.10;;;;;;;;;;5072325;28;20492;-77
2022/11/24 14:16:16;;;;;;;6.23;1.90;;;;;;;;;;5081716;28;20441;-77
2022/11/24 14:18:45;;;;;;;2.40;1.70;;;;;;;;;;5081422;28;20484;-77
2022/11/24 14:21:18;;;;;;;5.80;1.57;;;;;;;;;;5083508;28;20445;-77
2022/11/24 14:23:47;;;;;;;3.57;1.73;;;;;;;;;;5087019;28;20496;-77
2022/11/24 14:26:19;;;;;;;8.00;2.27;;;;;;;;;;5086137;28;20532;-77
2022/11/24 14:28:46;;;;;;;4.63;1.93;;;;;;;;;;5082143;28;20453;-78
2022/11/24 14:31:19;;;;;;;4.17;2.00;;;;;;;;;;5086238;28;20441;-76
2022/11/24 14:33:48;;;;;;;5.33;1.93;;;;;;;;;;5086892;28;20468;-78
2022/11/24 14:36:15;;;;;;;3.73;1.70;;;;;;;;;;5089865;28;20450;-78
2022/11/24 14:38:42;;;;;;;2.93;1.63;;;;;;;;;;5078864;28;20519;-77
2022/11/24 14:41:27;;;;;;;5.30;1.90;;;;;;;;;;5072516;28;20454;-77
2022/11/24 14:44:05;;;;;;;4.93;2.30;;;;;;;;;;5071762;28;20611;-78
2022/11/24 14:46:32;;;;;;;4.77;1.93;;;;;;;;;;5072371;28;20448;-78
2022/11/24 14:49:01;;;;;;;4.83;2.20;;;;;;;;;;5072054;28;20932;-77
2022/11/24 14:51:30;;;;;;;6.60;2.30;;;;;;;;;;5071798;28;20460;-77
2022/11/24 14:53:58;;;;;;;5.83;2.37;;;;;;;;;;5071539;28;20470;-77
2022/11/24 14:56:27;;;;;;;8.87;2.47;;;;;;;;;;5071972;28;20448;-77